Walton, Indiana
Current Conditions -  °F | °C
As of 2:58 AM on Saturday 01 Nov 2014 (Local Time) from KGUS Reporting Station
Few Clouds Few Clouds  
Wind Chill: 20°   Ceiling: Unl
Heat Index: 31°   Visibility: 10mi
Dew Point: 24°   Wind: 16mph
Humidity: 77%   Direction: 360°N
Pressure: 30.22"   Gusts: NA
Location:  40.66°N, 86.24°W
Report Text: KGUS 010658Z AUTO 36014KT 10SM FEW033 M01/M04 A3022 RMK AO2 SLP244 T10071042
Loading
Personal Weather Stations






























Interactive Weather Map
Tropical Storm Tracking
New forecast layout! Learn more

10-Day Weather Forecast

Advertisements
Track Severe Weather on mobile